Terminal Aerodrome Forecast
Issued by NWS

Home | Current Version | Previous Version | Text Only | Print | Product List | Glossary On
Versions: 1 2 3 4 5 6 7 8 9 10 11 12
000
FTUS41 KBTV 242320
TAFRUT
TAF
KRUT 242320Z 2500/2524 14010KT P6SM BKN200
     FM251100 13010G20KT P6SM -RA OVC060
     FM251500 13015G22KT 6SM -RA BR OVC045
     FM252100 12012KT 6SM -RA BR OVC035=

USA.gov is the U.S. government's official web portal to all federal, state and local government web resources and services.